sensor_id;sensor_type;location;lat;lon;timestamp;pressure;altitude;pressure_sealevel;temperature;humidity
13974;BME280;7060;43.770;4.008;2024-02-04T00:01:32;102289.22;;;4.59;67.71
13974;BME280;7060;43.770;4.008;2024-02-04T00:04:02;102337.59;;;4.83;67.83
13974;BME280;7060;43.770;4.008;2024-02-04T00:06:31;102351.00;;;4.78;67.79
13974;BME280;7060;43.770;4.008;2024-02-04T00:09:00;102296.16;;;4.39;67.73
13974;BME280;7060;43.770;4.008;2024-02-04T00:11:30;102295.09;;;4.43;67.99
13974;BME280;7060;43.770;4.008;2024-02-04T00:13:58;102332.91;;;4.67;67.74
13974;BME280;7060;43.770;4.008;2024-02-04T00:16:27;102325.78;;;4.69;67.74
13974;BME280;7060;43.770;4.008;2024-02-04T00:18:56;102346.19;;;4.66;67.51
13974;BME280;7060;43.770;4.008;2024-02-04T00:21:25;102305.75;;;4.42;67.73
13974;BME280;7060;43.770;4.008;2024-02-04T00:24:02;102329.69;;;4.61;67.75
13974;BME280;7060;43.770;4.008;2024-02-04T00:26:30;102326.28;;;4.57;67.99
13974;BME280;7060;43.770;4.008;2024-02-04T00:28:58;102330.72;;;4.57;67.93
13974;BME280;7060;43.770;4.008;2024-02-04T00:31:25;102326.53;;;4.51;68.26
13974;BME280;7060;43.770;4.008;2024-02-04T00:33:53;102322.59;;;4.39;67.82
13974;BME280;7060;43.770;4.008;2024-02-04T00:36:21;102324.75;;;4.30;68.26
13974;BME280;7060;43.770;4.008;2024-02-04T00:38:49;102325.03;;;4.22;68.28
13974;BME280;7060;43.770;4.008;2024-02-04T00:41:19;102318.16;;;4.18;68.41
13974;BME280;7060;43.770;4.008;2024-02-04T00:43:47;102312.81;;;4.20;68.17
13974;BME280;7060;43.770;4.008;2024-02-04T00:46:15;102314.59;;;4.19;68.43
13974;BME280;7060;43.770;4.008;2024-02-04T00:48:43;102308.44;;;4.19;68.74
13974;BME280;7060;43.770;4.008;2024-02-04T00:51:11;102310.16;;;4.20;68.37
13974;BME280;7060;43.770;4.008;2024-02-04T00:53:40;102306.53;;;4.22;67.83
13974;BME280;7060;43.770;4.008;2024-02-04T00:56:08;102305.75;;;4.20;67.85
13974;BME280;7060;43.770;4.008;2024-02-04T00:58:39;102310.44;;;4.12;68.66
13974;BME280;7060;43.770;4.008;2024-02-04T01:01:07;102319.44;;;4.08;67.98
13974;BME280;7060;43.770;4.008;2024-02-04T01:03:36;102302.31;;;3.95;68.51
13974;BME280;7060;43.770;4.008;2024-02-04T01:06:04;102310.59;;;4.09;68.59
13974;BME280;7060;43.770;4.008;2024-02-04T01:08:32;102310.50;;;4.11;67.97
13974;BME280;7060;43.770;4.008;2024-02-04T01:11:01;102306.47;;;4.02;68.42
13974;BME280;7060;43.770;4.008;2024-02-04T01:20:12;102311.50;;;3.85;68.70
13974;BME280;7060;43.770;4.008;2024-02-04T01:22:40;102305.38;;;3.84;68.20
13974;BME280;7060;43.770;4.008;2024-02-04T01:25:08;102313.38;;;3.83;68.60
13974;BME280;7060;43.770;4.008;2024-02-04T01:27:36;102316.94;;;3.82;68.94
13974;BME280;7060;43.770;4.008;2024-02-04T01:30:05;102305.31;;;3.86;69.46
13974;BME280;7060;43.770;4.008;2024-02-04T01:32:34;102309.72;;;3.85;69.05
13974;BME280;7060;43.770;4.008;2024-02-04T01:35:05;102313.38;;;3.83;68.96
13974;BME280;7060;43.770;4.008;2024-02-04T01:37:35;102314.16;;;3.85;68.83
13974;BME280;7060;43.770;4.008;2024-02-04T01:40:03;102317.66;;;3.85;68.45
13974;BME280;7060;43.770;4.008;2024-02-04T01:42:32;102317.97;;;3.78;68.74
13974;BME280;7060;43.770;4.008;2024-02-04T01:45:01;102303.31;;;3.69;68.61
13974;BME280;7060;43.770;4.008;2024-02-04T01:47:29;102319.81;;;3.76;68.41
13974;BME280;7060;43.770;4.008;2024-02-04T01:49:57;102331.56;;;3.67;68.17
13974;BME280;7060;43.770;4.008;2024-02-04T01:52:26;102333.38;;;3.65;68.20
13974;BME280;7060;43.770;4.008;2024-02-04T01:54:55;102325.53;;;3.63;68.36
13974;BME280;7060;43.770;4.008;2024-02-04T01:57:24;102337.00;;;3.62;68.94
13974;BME280;7060;43.770;4.008;2024-02-04T01:59:52;102338.88;;;3.59;68.62
13974;BME280;7060;43.770;4.008;2024-02-04T02:02:23;102311.75;;;3.30;68.29
13974;BME280;7060;43.770;4.008;2024-02-04T02:04:51;102350.94;;;3.43;68.41
13974;BME280;7060;43.770;4.008;2024-02-04T02:07:20;102352.81;;;3.39;69.01
13974;BME280;7060;43.770;4.008;2024-02-04T02:09:49;102349.34;;;3.37;68.75
13974;BME280;7060;43.770;4.008;2024-02-04T02:12:22;102343.00;;;3.43;68.74
13974;BME280;7060;43.770;4.008;2024-02-04T02:14:58;102344.69;;;3.45;69.22
13974;BME280;7060;43.770;4.008;2024-02-04T02:17:31;102344.72;;;3.44;69.14
13974;BME280;7060;43.770;4.008;2024-02-04T02:20:04;102337.88;;;3.38;68.63
13974;BME280;7060;43.770;4.008;2024-02-04T02:22:42;102340.53;;;3.38;69.07
13974;BME280;7060;43.770;4.008;2024-02-04T02:25:16;102330.19;;;3.32;68.97
13974;BME280;7060;43.770;4.008;2024-02-04T02:27:48;102287.53;;;2.94;68.72
13974;BME280;7060;43.770;4.008;2024-02-04T02:30:17;102336.91;;;3.16;69.04
13974;BME280;7060;43.770;4.008;2024-02-04T02:32:46;102336.09;;;3.14;69.15
13974;BME280;7060;43.770;4.008;2024-02-04T02:35:16;102335.28;;;3.12;69.02
13974;BME280;7060;43.770;4.008;2024-02-04T02:37:47;102337.84;;;3.15;69.04
13974;BME280;7060;43.770;4.008;2024-02-04T02:40:23;102339.66;;;3.13;68.82
13974;BME280;7060;43.770;4.008;2024-02-04T02:42:53;102337.22;;;3.06;69.59
13974;BME280;7060;43.770;4.008;2024-02-04T02:45:23;102333.50;;;3.12;69.27
13974;BME280;7060;43.770;4.008;2024-02-04T02:47:54;102322.19;;;3.09;69.07
13974;BME280;7060;43.770;4.008;2024-02-04T02:50:22;102317.88;;;3.06;69.13
13974;BME280;7060;43.770;4.008;2024-02-04T02:52:50;102322.41;;;3.02;69.37
13974;BME280;7060;43.770;4.008;2024-02-04T02:55:18;102312.00;;;2.99;69.67
13974;BME280;7060;43.770;4.008;2024-02-04T02:57:48;102317.03;;;3.05;68.94
13974;BME280;7060;43.770;4.008;2024-02-04T03:00:16;102309.22;;;3.02;69.54
13974;BME280;7060;43.770;4.008;2024-02-04T03:02:44;102312.72;;;3.03;68.92
13974;BME280;7060;43.770;4.008;2024-02-04T03:05:13;102317.38;;;2.96;69.59
13974;BME280;7060;43.770;4.008;2024-02-04T03:07:44;102315.53;;;2.98;69.93
13974;BME280;7060;43.770;4.008;2024-02-04T03:10:12;102311.84;;;3.02;69.38
13974;BME280;7060;43.770;4.008;2024-02-04T03:12:40;102313.38;;;3.10;69.37
13974;BME280;7060;43.770;4.008;2024-02-04T03:15:10;102306.38;;;3.09;69.58
13974;BME280;7060;43.770;4.008;2024-02-04T03:17:38;102298.56;;;3.05;69.15
13974;BME280;7060;43.770;4.008;2024-02-04T03:20:07;102292.47;;;3.03;69.12
13974;BME280;7060;43.770;4.008;2024-02-04T03:22:36;102285.75;;;2.95;69.40
13974;BME280;7060;43.770;4.008;2024-02-04T03:25:04;102284.09;;;2.92;69.31
13974;BME280;7060;43.770;4.008;2024-02-04T03:27:33;102291.28;;;2.87;69.59
13974;BME280;7060;43.770;4.008;2024-02-04T03:30:02;102288.91;;;2.80;69.21
13974;BME280;7060;43.770;4.008;2024-02-04T03:32:32;102282.66;;;2.82;69.57
13974;BME280;7060;43.770;4.008;2024-02-04T03:35:01;102282.78;;;2.79;69.18
13974;BME280;7060;43.770;4.008;2024-02-04T03:37:31;102279.28;;;2.79;69.54
13974;BME280;7060;43.770;4.008;2024-02-04T03:39:59;102272.97;;;2.83;69.79
13974;BME280;7060;43.770;4.008;2024-02-04T03:42:27;102277.25;;;2.87;69.31
13974;BME280;7060;43.770;4.008;2024-02-04T03:44:56;102273.84;;;2.83;69.42
13974;BME280;7060;43.770;4.008;2024-02-04T03:47:24;102264.22;;;2.82;69.34
13974;BME280;7060;43.770;4.008;2024-02-04T03:49:54;102269.38;;;2.85;69.73
13974;BME280;7060;43.770;4.008;2024-02-04T03:52:22;102270.34;;;2.83;68.98
13974;BME280;7060;43.770;4.008;2024-02-04T03:54:50;102257.31;;;2.78;69.03
13974;BME280;7060;43.770;4.008;2024-02-04T03:57:18;102263.75;;;2.71;69.06
13974;BME280;7060;43.770;4.008;2024-02-04T03:59:46;102261.25;;;2.66;68.97
13974;BME280;7060;43.770;4.008;2024-02-04T04:02:15;102266.56;;;2.65;69.42
13974;BME280;7060;43.770;4.008;2024-02-04T04:04:43;102258.72;;;2.63;69.21
13974;BME280;7060;43.770;4.008;2024-02-04T04:07:16;102264.91;;;2.62;68.95
13974;BME280;7060;43.770;4.008;2024-02-04T04:09:44;102271.22;;;2.57;69.12
13974;BME280;7060;43.770;4.008;2024-02-04T04:12:12;102293.63;;;2.44;68.79
13974;BME280;7060;43.770;4.008;2024-02-04T04:14:40;102282.47;;;2.35;69.75
13974;BME280;7060;43.770;4.008;2024-02-04T04:17:08;102279.59;;;2.43;69.78
13974;BME280;7060;43.770;4.008;2024-02-04T04:19:36;102262.00;;;2.44;69.97
13974;BME280;7060;43.770;4.008;2024-02-04T04:22:06;102267.69;;;2.58;69.64
13974;BME280;7060;43.770;4.008;2024-02-04T04:24:37;102268.53;;;2.58;69.43
13974;BME280;7060;43.770;4.008;2024-02-04T04:27:06;102279.22;;;2.54;69.96
13974;BME280;7060;43.770;4.008;2024-02-04T04:29:34;102260.00;;;2.50;69.62
13974;BME280;7060;43.770;4.008;2024-02-04T04:32:02;102261.78;;;2.50;69.54
13974;BME280;7060;43.770;4.008;2024-02-04T04:34:30;102261.06;;;2.46;69.74
13974;BME280;7060;43.770;4.008;2024-02-04T04:36:58;102266.25;;;2.48;69.79
13974;BME280;7060;43.770;4.008;2024-02-04T04:39:26;102275.28;;;2.41;69.79
13974;BME280;7060;43.770;4.008;2024-02-04T04:41:56;102268.19;;;2.43;70.14
13974;BME280;7060;43.770;4.008;2024-02-04T04:44:24;102268.03;;;2.47;69.97
13974;BME280;7060;43.770;4.008;2024-02-04T04:46:52;102268.78;;;2.51;69.60
13974;BME280;7060;43.770;4.008;2024-02-04T04:49:20;102287.47;;;2.45;69.43
13974;BME280;7060;43.770;4.008;2024-02-04T04:51:49;102283.44;;;2.33;69.86
13974;BME280;7060;43.770;4.008;2024-02-04T04:54:17;102276.34;;;2.35;70.10
13974;BME280;7060;43.770;4.008;2024-02-04T04:56:45;102282.28;;;2.42;69.88
13974;BME280;7060;43.770;4.008;2024-02-04T04:59:15;102247.50;;;2.30;69.71
13974;BME280;7060;43.770;4.008;2024-02-04T05:01:46;102279.78;;;2.37;69.42
13974;BME280;7060;43.770;4.008;2024-02-04T05:04:15;102276.56;;;2.27;70.20
13974;BME280;7060;43.770;4.008;2024-02-04T05:06:45;102271.25;;;2.29;70.34
13974;BME280;7060;43.770;4.008;2024-02-04T05:09:14;102262.50;;;2.28;70.32
13974;BME280;7060;43.770;4.008;2024-02-04T05:11:42;102254.88;;;2.19;70.75
13974;BME280;7060;43.770;4.008;2024-02-04T05:14:10;102261.63;;;2.28;70.21
13974;BME280;7060;43.770;4.008;2024-02-04T05:16:39;102272.22;;;2.26;69.97
13974;BME280;7060;43.770;4.008;2024-02-04T05:19:10;102260.28;;;2.16;70.39
13974;BME280;7060;43.770;4.008;2024-02-04T05:21:39;102256.69;;;2.19;70.31
13974;BME280;7060;43.770;4.008;2024-02-04T05:24:07;102261.88;;;2.20;70.35
13974;BME280;7060;43.770;4.008;2024-02-04T05:26:35;102269.91;;;2.17;69.97
13974;BME280;7060;43.770;4.008;2024-02-04T05:29:03;102264.88;;;2.10;70.35
13974;BME280;7060;43.770;4.008;2024-02-04T05:31:30;102268.22;;;2.15;70.62
13974;BME280;7060;43.770;4.008;2024-02-04T05:34:05;102259.22;;;2.20;70.54
13974;BME280;7060;43.770;4.008;2024-02-04T05:36:34;102272.56;;;2.16;70.43
13974;BME280;7060;43.770;4.008;2024-02-04T05:39:09;102275.34;;;2.11;70.23
13974;BME280;7060;43.770;4.008;2024-02-04T05:41:38;102283.34;;;2.08;70.70
13974;BME280;7060;43.770;4.008;2024-02-04T05:44:07;102286.78;;;2.10;70.57
13974;BME280;7060;43.770;4.008;2024-02-04T05:46:36;102274.44;;;2.12;70.75
13974;BME280;7060;43.770;4.008;2024-02-04T05:49:05;102286.78;;;2.10;70.40
13974;BME280;7060;43.770;4.008;2024-02-04T05:51:37;102287.75;;;2.08;70.66
13974;BME280;7060;43.770;4.008;2024-02-04T05:54:06;102279.84;;;2.08;70.62
13974;BME280;7060;43.770;4.008;2024-02-04T05:56:35;102286.06;;;2.05;70.57
13974;BME280;7060;43.770;4.008;2024-02-04T05:59:03;102294.94;;;2.02;70.30
13974;BME280;7060;43.770;4.008;2024-02-04T06:01:32;102292.38;;;1.99;70.79
13974;BME280;7060;43.770;4.008;2024-02-04T06:04:00;102305.63;;;1.96;70.64
13974;BME280;7060;43.770;4.008;2024-02-04T06:06:30;102312.75;;;1.93;70.52
13974;BME280;7060;43.770;4.008;2024-02-04T06:08:58;102300.38;;;1.96;71.03
13974;BME280;7060;43.770;4.008;2024-02-04T06:11:26;102298.72;;;1.92;70.87
13974;BME280;7060;43.770;4.008;2024-02-04T06:13:54;102305.69;;;1.95;70.90
13974;BME280;7060;43.770;4.008;2024-02-04T06:16:23;102309.34;;;1.91;71.05
13974;BME280;7060;43.770;4.008;2024-02-04T06:18:51;102315.41;;;1.93;70.91
13974;BME280;7060;43.770;4.008;2024-02-04T06:21:22;102313.59;;;1.95;70.85
13974;BME280;7060;43.770;4.008;2024-02-04T06:23:52;102324.88;;;1.98;70.42
13974;BME280;7060;43.770;4.008;2024-02-04T06:26:20;102327.56;;;1.97;70.39
13974;BME280;7060;43.770;4.008;2024-02-04T06:28:48;102331.16;;;1.94;69.86
13974;BME280;7060;43.770;4.008;2024-02-04T06:31:18;102346.28;;;1.88;70.43
13974;BME280;7060;43.770;4.008;2024-02-04T06:33:46;102343.75;;;1.85;70.46
13974;BME280;7060;43.770;4.008;2024-02-04T06:36:14;102349.09;;;1.82;70.12
13974;BME280;7060;43.770;4.008;2024-02-04T06:38:42;102353.59;;;1.78;70.42
13974;BME280;7060;43.770;4.008;2024-02-04T06:41:12;102355.47;;;1.73;70.21
13974;BME280;7060;43.770;4.008;2024-02-04T06:43:40;102356.41;;;1.70;70.74
13974;BME280;7060;43.770;4.008;2024-02-04T06:46:08;102360.91;;;1.67;70.67
13974;BME280;7060;43.770;4.008;2024-02-04T06:48:36;102355.69;;;1.65;70.83
13974;BME280;7060;43.770;4.008;2024-02-04T06:51:04;102369.75;;;1.64;70.52
13974;BME280;7060;43.770;4.008;2024-02-04T06:53:32;102372.38;;;1.64;71.01
13974;BME280;7060;43.770;4.008;2024-02-04T06:56:01;102358.97;;;1.74;71.42
13974;BME280;7060;43.770;4.008;2024-02-04T06:58:30;102372.78;;;1.82;71.05
13974;BME280;7060;43.770;4.008;2024-02-04T07:00:58;102366.53;;;1.86;71.16
13974;BME280;7060;43.770;4.008;2024-02-04T07:03:27;102374.34;;;1.89;71.07
13974;BME280;7060;43.770;4.008;2024-02-04T07:05:56;102368.22;;;1.88;71.01
13974;BME280;7060;43.770;4.008;2024-02-04T07:08:24;102302.66;;;1.48;71.24
13974;BME280;7060;43.770;4.008;2024-02-04T07:10:52;102371.81;;;1.86;70.84
13974;BME280;7060;43.770;4.008;2024-02-04T07:13:23;102376.16;;;1.87;70.76
13974;BME280;7060;43.770;4.008;2024-02-04T07:15:52;102372.41;;;1.94;70.69
13974;BME280;7060;43.770;4.008;2024-02-04T07:18:21;102374.09;;;1.96;70.76
13974;BME280;7060;43.770;4.008;2024-02-04T07:20:49;102373.06;;;2.02;70.80
13974;BME280;7060;43.770;4.008;2024-02-04T07:23:17;102372.13;;;2.04;70.83
13974;BME280;7060;43.770;4.008;2024-02-04T07:25:48;102383.44;;;2.08;70.70
13974;BME280;7060;43.770;4.008;2024-02-04T07:28:16;102386.97;;;2.07;70.42
13974;BME280;7060;43.770;4.008;2024-02-04T07:30:43;102387.00;;;2.06;70.75
13974;BME280;7060;43.770;4.008;2024-02-04T07:33:13;102383.16;;;2.17;70.89
13974;BME280;7060;43.770;4.008;2024-02-04T07:35:41;102383.81;;;2.24;70.73
13974;BME280;7060;43.770;4.008;2024-02-04T07:38:09;102397.66;;;2.32;70.92
13974;BME280;7060;43.770;4.008;2024-02-04T07:40:37;102387.69;;;2.42;71.10
13974;BME280;7060;43.770;4.008;2024-02-04T07:43:05;102371.41;;;2.57;71.01
13974;BME280;7060;43.770;4.008;2024-02-04T07:45:34;102359.56;;;2.70;71.34
13974;BME280;7060;43.770;4.008;2024-02-04T07:48:03;102390.94;;;3.04;71.04
13974;BME280;7060;43.770;4.008;2024-02-04T07:50:33;102387.28;;;3.34;71.36
13974;BME280;7060;43.770;4.008;2024-02-04T07:53:01;102394.88;;;3.68;70.97
13974;BME280;7060;43.770;4.008;2024-02-04T07:55:29;102389.63;;;3.92;70.00
13974;BME280;7060;43.770;4.008;2024-02-04T07:57:57;102395.31;;;4.28;69.68
13974;BME280;7060;43.770;4.008;2024-02-04T08:00:25;102390.44;;;4.62;69.28
13974;BME280;7060;43.770;4.008;2024-02-04T08:02:54;102400.09;;;4.85;68.39
13974;BME280;7060;43.770;4.008;2024-02-04T08:05:22;102396.72;;;5.24;68.79
13974;BME280;7060;43.770;4.008;2024-02-04T08:07:52;102405.88;;;5.57;68.38
13974;BME280;7060;43.770;4.008;2024-02-04T08:10:20;102395.47;;;5.93;67.54
13974;BME280;7060;43.770;4.008;2024-02-04T08:12:48;102395.41;;;6.32;67.88
13974;BME280;7060;43.770;4.008;2024-02-04T08:15:17;102401.00;;;6.64;67.03
13974;BME280;7060;43.770;4.008;2024-02-04T08:17:46;102389.25;;;6.87;66.81
13974;BME280;7060;43.770;4.008;2024-02-04T08:20:14;102403.94;;;7.30;66.36
13974;BME280;7060;43.770;4.008;2024-02-04T08:22:42;102400.22;;;7.67;65.86
13974;BME280;7060;43.770;4.008;2024-02-04T08:25:11;102404.94;;;7.95;65.54
13974;BME280;7060;43.770;4.008;2024-02-04T08:27:40;102401.34;;;8.29;65.33
13974;BME280;7060;43.770;4.008;2024-02-04T08:30:09;102392.47;;;8.61;64.62
13974;BME280;7060;43.770;4.008;2024-02-04T08:32:38;102401.78;;;8.84;64.09
13974;BME280;7060;43.770;4.008;2024-02-04T08:35:07;102396.75;;;9.09;64.84
13974;BME280;7060;43.770;4.008;2024-02-04T08:37:35;102403.22;;;9.35;63.63
13974;BME280;7060;43.770;4.008;2024-02-04T08:40:06;102401.91;;;9.42;63.84
13974;BME280;7060;43.770;4.008;2024-02-04T08:42:36;102402.53;;;9.62;62.86
13974;BME280;7060;43.770;4.008;2024-02-04T08:45:05;102400.66;;;9.78;63.09
13974;BME280;7060;43.770;4.008;2024-02-04T08:47:33;102396.38;;;9.75;62.34
13974;BME280;7060;43.770;4.008;2024-02-04T08:50:01;102392.28;;;9.84;61.79
13974;BME280;7060;43.770;4.008;2024-02-04T08:52:29;102389.53;;;10.00;61.80
13974;BME280;7060;43.770;4.008;2024-02-04T08:54:57;102389.34;;;10.03;62.13
13974;BME280;7060;43.770;4.008;2024-02-04T08:57:26;102382.44;;;10.13;62.14
13974;BME280;7060;43.770;4.008;2024-02-04T08:59:56;102377.16;;;10.27;62.14
13974;BME280;7060;43.770;4.008;2024-02-04T09:02:24;102382.66;;;10.38;62.63
13974;BME280;7060;43.770;4.008;2024-02-04T09:04:52;102371.38;;;10.47;62.70
13974;BME280;7060;43.770;4.008;2024-02-04T09:07:21;102374.13;;;10.60;61.42
13974;BME280;7060;43.770;4.008;2024-02-04T09:09:51;102378.66;;;10.72;60.10
13974;BME280;7060;43.770;4.008;2024-02-04T09:12:19;102374.34;;;10.84;58.22
13974;BME280;7060;43.770;4.008;2024-02-04T09:14:47;102375.47;;;11.07;57.32
13974;BME280;7060;43.770;4.008;2024-02-04T09:17:17;102379.25;;;11.30;56.62
13974;BME280;7060;43.770;4.008;2024-02-04T09:19:45;102380.56;;;11.49;55.58
13974;BME280;7060;43.770;4.008;2024-02-04T09:22:13;102385.31;;;11.71;56.10
13974;BME280;7060;43.770;4.008;2024-02-04T09:24:41;102387.69;;;11.89;56.98
13974;BME280;7060;43.770;4.008;2024-02-04T09:27:09;102379.88;;;11.98;57.65
13974;BME280;7060;43.770;4.008;2024-02-04T09:29:37;102384.78;;;12.04;55.78
13974;BME280;7060;43.770;4.008;2024-02-04T09:32:06;102396.56;;;12.14;55.76
13974;BME280;7060;43.770;4.008;2024-02-04T09:34:36;102386.28;;;12.21;55.14
13974;BME280;7060;43.770;4.008;2024-02-04T09:37:04;102379.28;;;12.31;54.55
13974;BME280;7060;43.770;4.008;2024-02-04T09:39:32;102374.97;;;12.41;53.66
13974;BME280;7060;43.770;4.008;2024-02-04T09:42:01;102391.25;;;12.51;53.80
13974;BME280;7060;43.770;4.008;2024-02-04T09:44:29;102387.88;;;12.60;53.62
13974;BME280;7060;43.770;4.008;2024-02-04T09:46:59;102385.50;;;12.68;53.29
13974;BME280;7060;43.770;4.008;2024-02-04T09:49:28;102392.53;;;12.82;53.49
13974;BME280;7060;43.770;4.008;2024-02-04T09:52:06;102376.25;;;12.96;53.59
13974;BME280;7060;43.770;4.008;2024-02-04T09:54:41;102379.00;;;13.07;53.05
13974;BME280;7060;43.770;4.008;2024-02-04T09:57:12;102379.91;;;13.19;52.88
13974;BME280;7060;43.770;4.008;2024-02-04T09:59:41;102382.25;;;13.24;50.82
13974;BME280;7060;43.770;4.008;2024-02-04T10:02:10;102385.09;;;13.33;51.37
13974;BME280;7060;43.770;4.008;2024-02-04T10:04:43;102376.44;;;13.41;50.66
13974;BME280;7060;43.770;4.008;2024-02-04T10:07:13;102381.00;;;13.51;50.86
13974;BME280;7060;43.770;4.008;2024-02-04T10:09:43;102378.47;;;13.61;49.62
13974;BME280;7060;43.770;4.008;2024-02-04T10:12:12;102385.53;;;13.73;48.63
13974;BME280;7060;43.770;4.008;2024-02-04T10:14:40;102383.63;;;13.86;48.78
13974;BME280;7060;43.770;4.008;2024-02-04T10:17:08;102382.88;;;13.96;48.94
13974;BME280;7060;43.770;4.008;2024-02-04T10:19:37;102384.97;;;14.03;49.71
13974;BME280;7060;43.770;4.008;2024-02-04T10:22:05;102384.25;;;14.12;50.58
13974;BME280;7060;43.770;4.008;2024-02-04T10:24:34;102389.75;;;14.22;49.88
13974;BME280;7060;43.770;4.008;2024-02-04T10:27:04;102389.84;;;14.32;48.54
13974;BME280;7060;43.770;4.008;2024-02-04T10:29:33;102381.94;;;14.41;47.08
13974;BME280;7060;43.770;4.008;2024-02-04T10:32:01;102385.56;;;14.51;46.73
13974;BME280;7060;43.770;4.008;2024-02-04T10:34:29;102389.22;;;14.62;46.85
13974;BME280;7060;43.770;4.008;2024-02-04T10:36:57;102378.44;;;14.73;46.84
13974;BME280;7060;43.770;4.008;2024-02-04T10:39:25;102379.38;;;14.83;46.16
13974;BME280;7060;43.770;4.008;2024-02-04T10:41:56;102374.72;;;14.96;45.48
13974;BME280;7060;43.770;4.008;2024-02-04T10:44:35;102372.94;;;15.06;45.02
13974;BME280;7060;43.770;4.008;2024-02-04T10:47:05;102345.59;;;15.01;44.88
13974;BME280;7060;43.770;4.008;2024-02-04T10:49:37;102372.59;;;15.32;44.46
13974;BME280;7060;43.770;4.008;2024-02-04T10:52:07;102372.53;;;15.43;44.61
13974;BME280;7060;43.770;4.008;2024-02-04T10:54:36;102364.16;;;15.57;44.77
13974;BME280;7060;43.770;4.008;2024-02-04T10:57:12;102363.94;;;15.70;44.01
13974;BME280;7060;43.770;4.008;2024-02-04T10:59:40;102354.81;;;15.82;44.11
13974;BME280;7060;43.770;4.008;2024-02-04T11:02:11;102354.56;;;15.95;43.54
13974;BME280;7060;43.770;4.008;2024-02-04T11:04:39;102340.88;;;16.07;43.69
13974;BME280;7060;43.770;4.008;2024-02-04T11:07:10;102339.78;;;16.19;43.46
13974;BME280;7060;43.770;4.008;2024-02-04T11:09:39;102338.53;;;16.33;42.98
13974;BME280;7060;43.770;4.008;2024-02-04T11:12:11;102284.03;;;16.20;42.84
13974;BME280;7060;43.770;4.008;2024-02-04T11:14:46;102322.84;;;16.57;43.38
13974;BME280;7060;43.770;4.008;2024-02-04T11:17:24;102320.47;;;16.74;42.70
13974;BME280;7060;43.770;4.008;2024-02-04T11:20:04;102319.78;;;16.91;41.36
13974;BME280;7060;43.770;4.008;2024-02-04T11:22:55;102322.59;;;17.09;39.97
13974;BME280;7060;43.770;4.008;2024-02-04T11:25:42;102314.75;;;17.25;39.30
13974;BME280;7060;43.770;4.008;2024-02-04T11:28:12;102310.06;;;17.46;39.65
13974;BME280;7060;43.770;4.008;2024-02-04T11:30:42;102299.22;;;17.66;40.39
13974;BME280;7060;43.770;4.008;2024-02-04T11:33:12;102297.44;;;17.84;40.38
13974;BME280;7060;43.770;4.008;2024-02-04T11:35:41;102296.81;;;18.00;40.35
13974;BME280;7060;43.770;4.008;2024-02-04T11:38:09;102301.53;;;18.15;39.36
13974;BME280;7060;43.770;4.008;2024-02-04T11:40:41;102298.34;;;18.30;38.63
13974;BME280;7060;43.770;4.008;2024-02-04T11:43:11;102290.53;;;18.44;38.31
13974;BME280;7060;43.770;4.008;2024-02-04T11:45:41;102283.22;;;18.54;38.57
13974;BME280;7060;43.770;4.008;2024-02-04T11:48:10;102278.25;;;18.59;38.10
13974;BME280;7060;43.770;4.008;2024-02-04T11:50:39;102268.31;;;18.68;38.29
13974;BME280;7060;43.770;4.008;2024-02-04T11:53:08;102266.56;;;18.77;38.54
13974;BME280;7060;43.770;4.008;2024-02-04T11:55:39;102263.59;;;18.88;38.06
13974;BME280;7060;43.770;4.008;2024-02-04T11:58:12;102261.66;;;18.98;38.30
13974;BME280;7060;43.770;4.008;2024-02-04T12:00:43;102241.63;;;19.09;37.09
13974;BME280;7060;43.770;4.008;2024-02-04T12:03:12;102246.59;;;19.21;36.94
13974;BME280;7060;43.770;4.008;2024-02-04T12:05:40;102245.34;;;19.34;36.81
13974;BME280;7060;43.770;4.008;2024-02-04T12:08:09;102247.25;;;19.41;37.01
13974;BME280;7060;43.770;4.008;2024-02-04T12:10:39;102240.16;;;19.48;37.11
13974;BME280;7060;43.770;4.008;2024-02-04T12:13:08;102232.28;;;19.55;35.80
13974;BME280;7060;43.770;4.008;2024-02-04T12:15:36;102232.47;;;19.62;35.04
13974;BME280;7060;43.770;4.008;2024-02-04T12:18:08;102228.28;;;19.67;35.91
13974;BME280;7060;43.770;4.008;2024-02-04T12:20:37;102223.03;;;19.74;36.65
13974;BME280;7060;43.770;4.008;2024-02-04T12:23:06;102226.78;;;19.81;35.76
13974;BME280;7060;43.770;4.008;2024-02-04T12:25:35;102230.03;;;19.84;35.37
13974;BME280;7060;43.770;4.008;2024-02-04T12:28:07;102213.59;;;19.86;35.63
13974;BME280;7060;43.770;4.008;2024-02-04T12:30:36;102209.88;;;19.87;35.63
13974;BME280;7060;43.770;4.008;2024-02-04T12:33:06;102212.44;;;19.88;35.12
13974;BME280;7060;43.770;4.008;2024-02-04T12:35:35;102196.19;;;19.88;34.42
13974;BME280;7060;43.770;4.008;2024-02-04T12:38:04;102198.41;;;19.93;34.42
13974;BME280;7060;43.770;4.008;2024-02-04T12:40:34;102192.66;;;19.96;34.94
13974;BME280;7060;43.770;4.008;2024-02-04T12:43:02;102187.03;;;19.98;35.53
13974;BME280;7060;43.770;4.008;2024-02-04T12:45:33;102189.75;;;19.98;35.37
13974;BME280;7060;43.770;4.008;2024-02-04T12:48:01;102188.56;;;20.00;35.20
13974;BME280;7060;43.770;4.008;2024-02-04T12:50:31;102181.81;;;20.04;33.82
13974;BME280;7060;43.770;4.008;2024-02-04T12:53:04;102182.16;;;20.09;34.83
13974;BME280;7060;43.770;4.008;2024-02-04T12:55:34;102171.84;;;20.13;35.76
13974;BME280;7060;43.770;4.008;2024-02-04T12:58:03;102172.19;;;20.18;34.40
13974;BME280;7060;43.770;4.008;2024-02-04T13:00:32;102174.03;;;20.25;33.65
13974;BME280;7060;43.770;4.008;2024-02-04T13:03:01;102166.41;;;20.29;33.58
13974;BME280;7060;43.770;4.008;2024-02-04T13:05:31;102166.97;;;20.41;33.69
13974;BME280;7060;43.770;4.008;2024-02-04T13:08:01;102060.00;;;19.86;34.48
13974;BME280;7060;43.770;4.008;2024-02-04T13:10:32;102149.84;;;20.56;34.75
13974;BME280;7060;43.770;4.008;2024-02-04T13:13:02;102159.00;;;20.64;34.33
13974;BME280;7060;43.770;4.008;2024-02-04T13:15:37;102150.88;;;20.72;34.15
13974;BME280;7060;43.770;4.008;2024-02-04T13:18:06;102146.78;;;20.76;34.01
13974;BME280;7060;43.770;4.008;2024-02-04T13:20:36;102146.75;;;20.84;33.35
13974;BME280;7060;43.770;4.008;2024-02-04T13:23:05;102144.53;;;20.87;32.30
13974;BME280;7060;43.770;4.008;2024-02-04T13:25:33;102135.72;;;20.93;33.11